createdAt,value
2023-04-27T00:00:23.936Z,135.52
2023-04-27T00:01:23.947Z,135.20
2023-04-27T00:02:24.088Z,135.33
2023-04-27T00:03:24.226Z,134.83
2023-04-27T00:04:24.159Z,135.18
2023-04-27T00:05:24.132Z,136.31
2023-04-27T00:06:24.070Z,134.39
2023-04-27T00:07:24.123Z,135.80
2023-04-27T00:08:24.143Z,135.19
2023-04-27T00:09:24.209Z,132.74
2023-04-27T00:10:24.224Z,134.24
2023-04-27T00:11:24.229Z,135.62
2023-04-27T00:12:24.258Z,134.38
2023-04-27T00:13:24.288Z,133.83
2023-04-27T00:14:24.299Z,135.43
2023-04-27T00:15:24.317Z,135.20
2023-04-27T00:16:24.385Z,134.90
2023-04-27T00:17:24.417Z,134.11
2023-04-27T00:18:24.454Z,134.51
2023-04-27T00:19:24.473Z,133.77
2023-04-27T00:20:24.492Z,135.31
2023-04-27T00:21:24.552Z,135.90
2023-04-27T00:22:24.547Z,133.74
2023-04-27T00:23:24.580Z,133.41
2023-04-27T00:24:24.648Z,133.56
2023-04-27T00:25:24.689Z,133.68
2023-04-27T00:26:24.690Z,133.37
2023-04-27T00:27:24.766Z,133.75
2023-04-27T00:28:24.761Z,132.51
2023-04-27T00:29:24.839Z,132.98
2023-04-27T00:30:24.864Z,133.47
2023-04-27T00:31:25.014Z,132.58
2023-04-27T00:32:25.014Z,132.65
2023-04-27T00:33:25.002Z,132.17
2023-04-27T00:34:25.066Z,132.49
2023-04-27T00:35:25.040Z,132.88
2023-04-27T00:36:25.091Z,130.82
2023-04-27T00:37:25.669Z,133.60
2023-04-27T00:38:25.172Z,131.06
2023-04-27T00:39:25.215Z,132.34
2023-04-27T00:40:25.275Z,133.79
2023-04-27T00:41:25.274Z,132.43
2023-04-27T00:42:25.278Z,132.01
2023-04-27T00:43:25.353Z,131.47
2023-04-27T00:44:25.358Z,131.82
2023-04-27T00:45:25.429Z,131.48
2023-04-27T00:46:25.503Z,132.01
2023-04-27T00:47:25.493Z,131.81
2023-04-27T00:48:25.489Z,130.69
2023-04-27T00:49:25.540Z,131.39
2023-04-27T00:50:25.530Z,129.99
2023-04-27T00:51:25.581Z,130.11
2023-04-27T00:52:25.598Z,130.05
2023-04-27T00:53:25.624Z,131.75
2023-04-27T00:54:25.658Z,130.91
2023-04-27T00:55:25.708Z,131.16
2023-04-27T00:56:25.697Z,130.10
2023-04-27T00:57:25.673Z,132.49
2023-04-27T00:58:25.672Z,132.02
2023-04-27T00:59:25.648Z,131.34
2023-04-27T01:00:25.697Z,130.46
2023-04-27T01:01:25.737Z,130.82
2023-04-27T01:02:25.783Z,129.47
2023-04-27T01:03:25.821Z,130.47
2023-04-27T01:04:25.858Z,130.59
2023-04-27T01:05:25.726Z,129.40
2023-04-27T01:06:25.727Z,129.38
2023-04-27T01:07:25.744Z,130.53
2023-04-27T01:08:25.744Z,130.54
2023-04-27T01:09:25.753Z,128.92
2023-04-27T01:10:25.795Z,129.25
2023-04-27T01:11:25.775Z,127.92
2023-04-27T01:12:25.761Z,128.60
2023-04-27T01:13:25.803Z,128.78
2023-04-27T01:14:25.772Z,127.65
2023-04-27T01:15:25.781Z,128.10
2023-04-27T01:16:25.874Z,130.14
2023-04-27T01:17:25.820Z,128.90
2023-04-27T01:18:25.813Z,128.45
2023-04-27T01:19:25.803Z,129.02
2023-04-27T01:20:25.767Z,129.32
2023-04-27T01:21:25.807Z,129.24
2023-04-27T01:22:25.781Z,128.70
2023-04-27T01:23:25.765Z,126.94
2023-04-27T01:24:25.765Z,128.12
2023-04-27T01:25:25.795Z,129.54
2023-04-27T01:26:25.737Z,127.09
2023-04-27T01:27:25.763Z,126.88
2023-04-27T01:28:25.748Z,127.85
2023-04-27T01:29:25.762Z,127.01
2023-04-27T01:30:25.731Z,127.72
2023-04-27T01:31:25.778Z,125.81
2023-04-27T01:32:25.755Z,128.96
2023-04-27T01:33:25.757Z,128.11
2023-04-27T01:34:25.736Z,127.16
2023-04-27T01:35:28.243Z,127.01
2023-04-27T01:36:25.992Z,127.09
2023-04-27T01:37:26.010Z,126.62
2023-04-27T01:38:25.981Z,127.06
2023-04-27T01:39:25.992Z,128.21
2023-04-27T01:40:26.007Z,126.93
2023-04-27T01:41:25.995Z,128.37
2023-04-27T01:42:25.980Z,127.18
2023-04-27T01:43:25.984Z,125.36
2023-04-27T01:44:26.003Z,127.00
2023-04-27T01:45:25.991Z,126.14
2023-04-27T01:46:26.006Z,126.00
2023-04-27T01:47:26.024Z,125.86
2023-04-27T01:48:26.017Z,126.23
2023-04-27T01:49:26.012Z,123.65
2023-04-27T01:50:26.027Z,125.94
2023-04-27T01:51:26.026Z,126.70
2023-04-27T01:52:26.020Z,124.26
2023-04-27T01:53:25.991Z,126.51
2023-04-27T01:54:28.169Z,125.04
2023-04-27T01:55:26.015Z,127.24
2023-04-27T01:56:26.036Z,126.98
2023-04-27T01:57:25.991Z,126.08
2023-04-27T01:58:25.979Z,127.52
2023-04-27T01:59:25.981Z,123.97
2023-04-27T02:00:25.955Z,125.11
2023-04-27T02:01:26.015Z,125.27
2023-04-27T02:02:25.995Z,125.28
2023-04-27T02:03:26.106Z,124.58
2023-04-27T02:04:26.114Z,125.48
2023-04-27T02:05:25.957Z,125.16
2023-04-27T02:06:25.948Z,122.57
2023-04-27T02:07:25.948Z,124.06
2023-04-27T02:08:25.924Z,122.69
2023-04-27T02:09:25.948Z,123.98
2023-04-27T02:10:25.923Z,121.22
2023-04-27T02:11:25.918Z,124.19
2023-04-27T02:12:25.907Z,121.94
2023-04-27T02:13:25.892Z,121.84
2023-04-27T02:14:25.864Z,121.41
2023-04-27T02:15:25.876Z,121.89
2023-04-27T02:16:25.927Z,123.36
2023-04-27T02:17:25.943Z,122.86
2023-04-27T02:18:25.887Z,122.07
2023-04-27T02:19:25.891Z,121.51
2023-04-27T02:20:25.867Z,119.62
2023-04-27T02:21:25.852Z,119.10
2023-04-27T02:22:25.848Z,121.28
2023-04-27T02:23:25.861Z,120.21
2023-04-27T02:24:25.851Z,122.25
2023-04-27T02:25:25.823Z,119.78
2023-04-27T02:26:25.794Z,121.13
2023-04-27T02:27:25.833Z,118.74
2023-04-27T02:28:25.816Z,121.70
2023-04-27T02:29:25.787Z,120.03
2023-04-27T02:30:25.809Z,120.20
2023-04-27T02:31:25.816Z,119.01
2023-04-27T02:32:25.847Z,119.57
2023-04-27T02:33:25.782Z,118.74
2023-04-27T02:34:25.783Z,118.34
2023-04-27T02:35:25.760Z,117.33
2023-04-27T02:36:25.780Z,117.37
2023-04-27T02:37:25.752Z,117.75
2023-04-27T02:38:25.732Z,117.55
2023-04-27T02:39:25.754Z,116.33
2023-04-27T02:40:25.748Z,117.42
2023-04-27T02:41:25.722Z,115.80
2023-04-27T02:42:26.244Z,116.13
2023-04-27T02:43:25.691Z,115.69
2023-04-27T02:44:25.686Z,116.68
2023-04-27T02:45:25.700Z,116.89
2023-04-27T02:46:25.711Z,116.80
2023-04-27T02:47:25.670Z,116.18
2023-04-27T02:48:25.690Z,114.59
2023-04-27T02:49:25.665Z,116.29
2023-04-27T02:50:25.679Z,114.84
2023-04-27T02:51:25.659Z,116.03
2023-04-27T02:52:25.653Z,115.76
2023-04-27T02:53:25.624Z,115.33
2023-04-27T02:54:25.667Z,114.83
2023-04-27T02:55:25.737Z,114.25
2023-04-27T02:56:25.823Z,114.86
2023-04-27T02:57:25.880Z,115.01
2023-04-27T02:58:25.926Z,113.05
2023-04-27T02:59:25.967Z,112.54
2023-04-27T03:00:26.029Z,114.38
2023-04-27T03:01:26.069Z,113.00
2023-04-27T03:02:26.217Z,113.34
2023-04-27T03:03:26.402Z,113.93
2023-04-27T03:04:26.358Z,113.43
2023-04-27T03:05:26.321Z,113.83
2023-04-27T03:06:26.382Z,113.22
2023-04-27T03:07:26.416Z,113.16
2023-04-27T03:08:26.499Z,112.92
2023-04-27T03:09:26.519Z,113.37
2023-04-27T03:10:26.590Z,114.30
2023-04-27T03:11:26.653Z,114.24
2023-04-27T03:12:26.713Z,112.64
2023-04-27T03:13:26.740Z,111.05
2023-04-27T03:14:26.799Z,112.14
2023-04-27T03:15:26.827Z,112.24
2023-04-27T03:16:26.908Z,113.56
2023-04-27T03:17:27.021Z,112.21
2023-04-27T03:18:26.973Z,112.35
2023-04-27T03:19:27.030Z,111.87
2023-04-27T03:20:27.113Z,111.74
2023-04-27T03:21:27.131Z,111.81
2023-04-27T03:22:27.202Z,111.30
2023-04-27T03:23:27.225Z,112.50
2023-04-27T03:24:27.261Z,111.54
2023-04-27T03:25:27.331Z,109.76
2023-04-27T03:26:27.368Z,110.34
2023-04-27T03:27:27.422Z,110.67
2023-04-27T03:28:27.477Z,111.12
2023-04-27T03:29:27.512Z,111.16
2023-04-27T03:30:27.553Z,111.66
2023-04-27T03:31:27.618Z,109.60
2023-04-27T03:32:27.670Z,110.22
2023-04-27T03:33:27.654Z,110.37
2023-04-27T03:34:27.700Z,108.58
2023-04-27T03:35:27.732Z,109.97
2023-04-27T03:36:27.786Z,108.76
2023-04-27T03:37:27.798Z,107.74
2023-04-27T03:38:27.868Z,110.36
2023-04-27T03:39:27.896Z,107.56
2023-04-27T03:40:27.942Z,108.85
2023-04-27T03:41:27.946Z,109.88
2023-04-27T03:42:28.020Z,108.99
2023-04-27T03:43:28.037Z,107.30
2023-04-27T03:44:28.061Z,108.81
2023-04-27T03:45:28.104Z,108.54
2023-04-27T03:46:28.203Z,108.67
2023-04-27T03:47:28.186Z,108.64
2023-04-27T03:48:28.209Z,108.88
2023-04-27T03:49:28.247Z,108.79
2023-04-27T03:50:30.193Z,107.92
2023-04-27T03:51:28.336Z,108.69
2023-04-27T03:52:28.318Z,108.06
2023-04-27T03:53:28.363Z,107.15
2023-04-27T03:54:28.411Z,108.35
2023-04-27T03:55:28.449Z,106.85
2023-04-27T03:56:28.498Z,106.59
2023-04-27T03:57:28.547Z,107.78
2023-04-27T03:58:28.526Z,108.08
2023-04-27T03:59:28.579Z,108.45
2023-04-27T04:00:28.621Z,109.19
2023-04-27T04:01:28.672Z,106.89
2023-04-27T04:02:28.822Z,107.16
2023-04-27T04:03:28.905Z,107.76
2023-04-27T04:04:28.831Z,107.53
2023-04-27T04:05:28.745Z,106.04
2023-04-27T04:06:28.793Z,106.23
2023-04-27T04:07:28.859Z,107.46
2023-04-27T04:08:28.867Z,106.92
2023-04-27T04:09:28.874Z,105.48
2023-04-27T04:10:28.936Z,105.68
2023-04-27T04:11:28.952Z,107.14
2023-04-27T04:12:28.969Z,106.37
2023-04-27T04:13:28.998Z,106.38
2023-04-27T04:14:29.002Z,106.09
2023-04-27T04:15:29.095Z,107.36
2023-04-27T04:16:29.140Z,104.88
2023-04-27T04:17:29.129Z,105.65
2023-04-27T04:18:29.119Z,105.25
2023-04-27T04:19:29.169Z,104.49
2023-04-27T04:20:29.191Z,105.05
2023-04-27T04:21:29.234Z,105.00
2023-04-27T04:22:29.240Z,105.12
2023-04-27T04:23:29.274Z,104.09
2023-04-27T04:24:29.282Z,105.72
2023-04-27T04:25:29.298Z,104.86
2023-04-27T04:26:29.300Z,104.16
2023-04-27T04:27:29.346Z,104.21
2023-04-27T04:28:29.370Z,103.82
2023-04-27T04:29:29.363Z,104.28
2023-04-27T04:30:29.387Z,104.71
2023-04-27T04:31:29.465Z,105.27
2023-04-27T04:32:29.495Z,104.67
2023-04-27T04:33:29.460Z,105.09
2023-04-27T04:34:29.512Z,103.73
2023-04-27T04:35:29.496Z,104.24
2023-04-27T04:36:29.531Z,104.50
2023-04-27T04:37:29.548Z,105.52
2023-04-27T04:38:29.580Z,104.81
2023-04-27T04:39:29.583Z,104.70
2023-04-27T04:40:29.599Z,104.75
2023-04-27T04:41:29.630Z,104.79
2023-04-27T04:42:29.673Z,104.04
2023-04-27T04:43:29.694Z,104.35
2023-04-27T04:44:29.683Z,104.90
2023-04-27T04:45:29.699Z,104.51
2023-04-27T04:46:29.780Z,103.08
2023-04-27T04:47:29.796Z,103.82
2023-04-27T04:48:29.781Z,102.38
2023-04-27T04:49:29.813Z,104.33
2023-04-27T04:50:29.830Z,103.80
2023-04-27T04:51:29.842Z,103.60
2023-04-27T04:52:29.872Z,105.21
2023-04-27T04:53:29.869Z,103.09
2023-04-27T04:54:29.900Z,102.83
2023-04-27T04:55:29.928Z,104.54
2023-04-27T04:56:29.944Z,101.59
2023-04-27T04:57:29.972Z,103.21
2023-04-27T04:58:30.009Z,102.91
2023-04-27T04:59:31.956Z,102.57
2023-04-27T05:00:30.042Z,103.95
2023-04-27T05:01:37.094Z,102.48
2023-04-27T05:02:30.154Z,102.71
2023-04-27T05:03:30.219Z,103.10
2023-04-27T05:04:30.148Z,103.31
2023-04-27T05:05:30.041Z,103.37
2023-04-27T05:06:29.994Z,103.48
2023-04-27T05:07:30.008Z,103.11
2023-04-27T05:08:30.004Z,103.98
2023-04-27T05:09:29.999Z,103.13
2023-04-27T05:10:30.004Z,102.17
2023-04-27T05:11:29.985Z,103.47
2023-04-27T05:12:29.996Z,102.30
2023-04-27T05:13:29.956Z,102.03
2023-04-27T05:14:29.961Z,101.99
2023-04-27T05:15:29.960Z,102.27
2023-04-27T05:16:30.003Z,101.78
2023-04-27T05:17:30.032Z,100.58
2023-04-27T05:18:29.939Z,100.73
2023-04-27T05:19:29.924Z,101.43
2023-04-27T05:20:29.950Z,101.05
2023-04-27T05:21:29.945Z,101.91
2023-04-27T05:22:29.911Z,99.92
2023-04-27T05:23:29.907Z,100.72
2023-04-27T05:24:29.892Z,100.30
2023-04-27T05:25:29.893Z,101.30
2023-04-27T05:26:29.913Z,101.08
2023-04-27T05:27:29.877Z,99.74
2023-04-27T05:28:29.878Z,99.36
2023-04-27T05:29:29.842Z,101.35
2023-04-27T05:30:29.876Z,102.87
2023-04-27T05:31:29.903Z,101.83
2023-04-27T05:32:29.882Z,100.42
2023-04-27T05:33:29.855Z,101.90
2023-04-27T05:34:29.812Z,101.52
2023-04-27T05:35:29.822Z,99.74
2023-04-27T05:36:29.833Z,81.89
2023-04-27T05:37:29.882Z,73.45
2023-04-27T05:38:29.918Z,51.15
2023-04-27T05:39:29.956Z,46.57
2023-04-27T05:40:29.967Z,55.36
2023-04-27T05:41:29.975Z,66.77
2023-04-27T05:42:30.421Z,69.47
2023-04-27T05:43:29.961Z,70.39
2023-04-27T05:44:29.991Z,74.37
2023-04-27T05:45:29.991Z,79.06
2023-04-27T05:46:38.722Z,76.23
2023-04-27T05:47:30.005Z,76.49
2023-04-27T05:48:29.982Z,77.20
2023-04-27T05:49:29.997Z,78.05
2023-04-27T05:50:29.944Z,77.17
2023-04-27T05:51:29.986Z,86.32
2023-04-27T05:52:29.963Z,84.73
2023-04-27T05:53:30.373Z,91.04
2023-04-27T05:54:29.917Z,89.31
2023-04-27T05:55:29.916Z,90.41
2023-04-27T05:56:29.923Z,103.00
2023-04-27T05:57:29.885Z,91.80
2023-04-27T05:58:29.907Z,91.00
2023-04-27T05:59:29.921Z,97.38
2023-04-27T06:00:29.918Z,94.27
2023-04-27T06:01:29.909Z,78.35
2023-04-27T06:02:30.056Z,104.37
2023-04-27T06:03:30.064Z,111.83
2023-04-27T06:04:29.887Z,93.51
2023-04-27T06:05:29.874Z,95.09
2023-04-27T06:06:29.800Z,96.39
2023-04-27T06:07:29.855Z,88.48
2023-04-27T06:08:29.827Z,80.90
2023-04-27T06:09:29.796Z,91.95
2023-04-27T06:10:29.807Z,86.07
2023-04-27T06:11:29.790Z,82.74
2023-04-27T06:12:29.782Z,81.18
2023-04-27T06:13:29.895Z,94.46
2023-04-27T06:14:29.814Z,73.08
2023-04-27T06:15:29.789Z,91.13
2023-04-27T06:16:29.862Z,84.54
2023-04-27T06:17:29.834Z,81.23
2023-04-27T06:18:29.864Z,78.26
2023-04-27T06:19:29.755Z,93.03
2023-04-27T06:20:29.751Z,158.85
2023-04-27T06:21:29.748Z,175.10
2023-04-27T06:22:29.724Z,143.47
2023-04-27T06:23:29.729Z,167.60
2023-04-27T06:24:29.709Z,195.16
2023-04-27T06:25:29.713Z,216.58
2023-04-27T06:26:29.700Z,223.92
2023-04-27T06:27:29.683Z,218.99
2023-04-27T06:28:29.665Z,217.13
2023-04-27T06:29:29.665Z,220.87
2023-04-27T06:30:29.650Z,196.00
2023-04-27T06:31:29.681Z,247.13
2023-04-27T06:32:29.688Z,250.93
2023-04-27T06:33:29.685Z,245.55
2023-04-27T06:34:29.676Z,253.58
2023-04-27T06:35:29.634Z,226.26
2023-04-27T06:36:29.645Z,200.18
2023-04-27T06:37:29.645Z,188.29
2023-04-27T06:38:29.898Z,186.52
2023-04-27T06:39:29.619Z,194.45
2023-04-27T06:40:29.626Z,195.87
2023-04-27T06:41:29.595Z,216.72
2023-04-27T06:42:29.611Z,200.42
2023-04-27T06:43:29.871Z,202.54
2023-04-27T06:44:29.568Z,188.44
2023-04-27T06:45:29.569Z,179.91
2023-04-27T06:46:29.688Z,176.42
2023-04-27T06:47:29.591Z,162.34
2023-04-27T06:48:29.572Z,163.36
2023-04-27T06:49:29.536Z,159.12
2023-04-27T06:50:29.584Z,155.00
2023-04-27T06:51:29.585Z,137.38
2023-04-27T06:52:29.559Z,145.90
2023-04-27T06:53:29.573Z,161.99
2023-04-27T06:54:29.607Z,169.38
2023-04-27T06:55:29.629Z,161.32
2023-04-27T06:56:29.678Z,152.08
2023-04-27T06:57:29.729Z,136.68
2023-04-27T06:58:29.803Z,140.85
2023-04-27T06:59:29.859Z,143.35
2023-04-27T07:00:29.904Z,144.50
2023-04-27T07:01:30.158Z,137.97
2023-04-27T07:02:30.123Z,136.97
2023-04-27T07:03:30.284Z,133.83
2023-04-27T07:04:30.242Z,129.27
2023-04-27T07:05:30.232Z,132.25
2023-04-27T07:06:30.274Z,127.69
2023-04-27T07:07:30.336Z,128.26
2023-04-27T07:08:30.415Z,208.79
2023-04-27T07:09:30.601Z,178.11
2023-04-27T07:10:30.524Z,158.28
2023-04-27T07:11:30.674Z,137.16
2023-04-27T07:12:30.684Z,128.74
2023-04-27T07:13:30.718Z,117.88
2023-04-27T07:14:30.758Z,113.46
2023-04-27T07:15:30.838Z,101.79
2023-04-27T07:16:30.955Z,106.05
2023-04-27T07:17:30.972Z,102.26
2023-04-27T07:18:31.365Z,105.58
2023-04-27T07:19:31.024Z,110.59
2023-04-27T07:20:31.103Z,107.07
2023-04-27T07:21:31.098Z,100.73
2023-04-27T07:22:31.089Z,107.88
2023-04-27T07:23:31.401Z,108.66
2023-04-27T07:24:31.149Z,110.16
2023-04-27T07:25:31.137Z,108.27
2023-04-27T07:26:31.149Z,103.16
2023-04-27T07:27:31.147Z,95.72
2023-04-27T07:28:31.127Z,95.58
2023-04-27T07:29:31.722Z,99.98
2023-04-27T07:30:31.255Z,94.39
2023-04-27T07:31:31.215Z,105.98
2023-04-27T07:32:31.156Z,103.96
2023-04-27T07:33:31.174Z,97.35
2023-04-27T07:34:41.027Z,102.56
2023-04-27T07:35:32.143Z,99.29
2023-04-27T07:36:31.107Z,93.56
2023-04-27T07:37:31.125Z,94.20
2023-04-27T07:38:31.165Z,94.04
2023-04-27T07:39:31.404Z,81.64
2023-04-27T07:40:31.063Z,81.81
2023-04-27T07:41:31.083Z,86.11
2023-04-27T07:42:31.081Z,91.29
2023-04-27T07:43:31.058Z,88.49
2023-04-27T07:44:31.396Z,83.10
2023-04-27T07:45:31.157Z,73.98
2023-04-27T07:46:31.045Z,62.89
2023-04-27T07:47:31.064Z,57.23
2023-04-27T07:48:31.023Z,48.51
2023-04-27T07:49:31.071Z,50.68
2023-04-27T07:50:31.016Z,54.60
2023-04-27T07:51:31.043Z,53.12
2023-04-27T07:52:31.033Z,37.42
2023-04-27T07:53:31.064Z,32.16
2023-04-27T07:54:31.116Z,32.40
2023-04-27T07:55:31.117Z,38.31
2023-04-27T07:56:31.161Z,37.33
2023-04-27T07:57:31.197Z,36.30
2023-04-27T07:58:31.245Z,44.82
2023-04-27T07:59:31.308Z,38.70
2023-04-27T08:00:31.274Z,35.87
2023-04-27T08:01:31.358Z,39.24
2023-04-27T08:02:31.474Z,38.26
2023-04-27T08:03:31.548Z,32.39
2023-04-27T08:04:32.143Z,43.93
2023-04-27T08:05:32.090Z,40.70
2023-04-27T08:06:31.882Z,39.98
2023-04-27T08:07:31.930Z,34.87
2023-04-27T08:08:31.623Z,30.46
2023-04-27T08:09:31.916Z,25.00
2023-04-27T08:10:31.664Z,25.78
2023-04-27T08:11:31.746Z,25.00
2023-04-27T08:12:31.761Z,26.58
2023-04-27T08:13:31.825Z,26.23
2023-04-27T08:14:31.878Z,25.08
2023-04-27T08:15:31.941Z,27.67
2023-04-27T08:16:32.023Z,28.77
2023-04-27T08:17:32.052Z,26.93
2023-04-27T08:18:32.084Z,25.74
2023-04-27T08:19:32.129Z,27.87
2023-04-27T08:20:32.171Z,26.08
2023-04-27T08:21:32.223Z,25.83
2023-04-27T08:22:32.267Z,24.33
2023-04-27T08:23:32.342Z,25.00
2023-04-27T08:24:32.371Z,25.00
2023-04-27T08:25:32.402Z,25.00
2023-04-27T08:26:32.453Z,25.00
2023-04-27T08:27:32.532Z,25.00
2023-04-27T08:28:32.563Z,26.45
2023-04-27T08:29:32.878Z,28.41
2023-04-27T08:30:32.677Z,29.62
2023-04-27T08:31:32.748Z,25.31
2023-04-27T08:32:32.826Z,23.94
2023-04-27T08:33:32.944Z,24.94
2023-04-27T08:34:32.949Z,31.61
2023-04-27T08:35:33.031Z,26.39
2023-04-27T08:36:33.067Z,30.19
2023-04-27T08:37:33.111Z,31.24
2023-04-27T08:38:33.184Z,29.56
2023-04-27T08:39:33.251Z,26.98
2023-04-27T08:40:33.304Z,29.50
2023-04-27T08:41:33.374Z,26.81
2023-04-27T08:42:33.423Z,26.40
2023-04-27T08:43:33.490Z,27.32
2023-04-27T08:44:33.573Z,27.90
2023-04-27T08:45:33.617Z,25.49
2023-04-27T08:46:33.705Z,25.00
2023-04-27T08:47:42.679Z,25.30
2023-04-27T08:48:34.711Z,24.51
2023-04-27T08:49:33.961Z,20.43
2023-04-27T08:50:33.747Z,15.42
2023-04-27T08:51:33.705Z,24.03
2023-04-27T08:52:33.687Z,31.32
2023-04-27T08:53:33.690Z,44.11
2023-04-27T08:54:33.717Z,44.29
2023-04-27T08:55:33.936Z,40.57
2023-04-27T08:56:33.691Z,75.30
2023-04-27T08:57:33.965Z,66.44
2023-04-27T08:58:33.692Z,34.97
2023-04-27T08:59:33.743Z,25.26
2023-04-27T09:00:33.744Z,25.81
2023-04-27T09:01:33.764Z,36.89
2023-04-27T09:02:33.890Z,42.02
2023-04-27T09:03:33.907Z,43.14
2023-04-27T09:04:33.844Z,41.62
2023-04-27T09:05:33.817Z,39.48
2023-04-27T09:06:33.868Z,36.54
2023-04-27T09:07:33.750Z,31.16
2023-04-27T09:08:33.774Z,30.40
2023-04-27T09:09:33.789Z,32.69
2023-04-27T09:10:33.776Z,33.81
2023-04-27T09:11:33.900Z,30.50
2023-04-27T09:12:33.845Z,39.96
2023-04-27T09:13:33.802Z,49.22
2023-04-27T09:14:33.882Z,49.73
2023-04-27T09:15:33.861Z,41.55
2023-04-27T09:16:33.970Z,38.14
2023-04-27T09:17:34.064Z,34.54
2023-04-27T09:18:33.929Z,30.32
2023-04-27T09:19:33.975Z,29.52
2023-04-27T09:20:34.016Z,31.85
2023-04-27T09:21:33.998Z,30.71
2023-04-27T09:22:34.005Z,32.90
2023-04-27T09:23:34.029Z,31.69
2023-04-27T09:24:34.014Z,28.60
2023-04-27T09:25:34.028Z,25.00
2023-04-27T09:26:34.047Z,28.58
2023-04-27T09:27:34.142Z,28.91
2023-04-27T09:28:34.224Z,29.10
2023-04-27T09:29:34.239Z,30.01
2023-04-27T09:30:34.336Z,30.30
2023-04-27T09:31:34.434Z,33.61
2023-04-27T09:32:34.458Z,28.98
2023-04-27T09:33:34.490Z,26.75
2023-04-27T09:34:34.564Z,27.09
2023-04-27T09:35:34.983Z,29.22
2023-04-27T09:36:34.678Z,45.79
2023-04-27T09:37:34.805Z,50.82
2023-04-27T09:38:34.706Z,39.01
2023-04-27T09:39:34.741Z,44.76
2023-04-27T09:40:34.781Z,32.47
2023-04-27T09:41:34.811Z,16.26
2023-04-27T09:42:34.815Z,7.12
2023-04-27T09:43:34.906Z,8.56
2023-04-27T09:44:34.994Z,21.89
2023-04-27T09:45:35.506Z,26.81
2023-04-27T09:46:35.064Z,25.24
2023-04-27T09:47:35.191Z,30.55
2023-04-27T09:48:35.266Z,29.20
2023-04-27T09:49:35.173Z,30.17
2023-04-27T09:50:37.391Z,32.46
2023-04-27T09:51:35.203Z,33.92
2023-04-27T09:52:35.161Z,33.59
2023-04-27T09:53:35.231Z,36.79
2023-04-27T09:54:35.154Z,35.53
2023-04-27T09:55:35.160Z,29.08
2023-04-27T09:56:35.136Z,27.70
2023-04-27T09:57:35.132Z,25.00
2023-04-27T09:58:35.133Z,28.38
2023-04-27T09:59:35.150Z,25.24
2023-04-27T10:00:35.504Z,25.86
2023-04-27T10:01:37.307Z,28.28
2023-04-27T10:02:46.293Z,28.41
2023-04-27T10:03:36.181Z,28.56
2023-04-27T10:04:35.256Z,29.51
2023-04-27T10:05:35.088Z,31.69
2023-04-27T10:06:35.087Z,34.86
2023-04-27T10:07:35.059Z,40.66
2023-04-27T10:08:35.039Z,40.25
2023-04-27T10:09:35.063Z,37.22
2023-04-27T10:10:35.136Z,37.56
2023-04-27T10:11:35.076Z,39.33
2023-04-27T10:12:35.107Z,40.75
2023-04-27T10:13:35.162Z,42.31
2023-04-27T10:14:35.201Z,39.55
2023-04-27T10:15:35.240Z,42.52
2023-04-27T10:16:35.378Z,42.44
2023-04-27T10:17:35.411Z,48.57
2023-04-27T10:18:35.413Z,50.33
2023-04-27T10:19:35.452Z,45.70
2023-04-27T10:20:35.488Z,46.39
2023-04-27T10:21:35.543Z,46.09
2023-04-27T10:22:36.074Z,50.45
2023-04-27T10:23:35.581Z,51.08
2023-04-27T10:24:35.632Z,49.31
2023-04-27T10:25:35.674Z,48.98
2023-04-27T10:26:37.329Z,52.86
2023-04-27T10:27:35.722Z,53.59
2023-04-27T10:28:35.708Z,53.65
2023-04-27T10:29:35.721Z,54.32
2023-04-27T10:30:35.725Z,52.42
2023-04-27T10:31:35.810Z,45.16
2023-04-27T10:32:35.760Z,42.68
2023-04-27T10:33:35.725Z,46.16
2023-04-27T10:34:35.635Z,44.33
2023-04-27T10:35:35.639Z,43.60
2023-04-27T10:36:35.984Z,49.78
2023-04-27T10:37:35.636Z,60.86
2023-04-27T10:38:35.616Z,64.10
2023-04-27T10:39:47.078Z,74.41
2023-04-27T10:40:36.640Z,74.72
2023-04-27T10:41:36.019Z,76.54
2023-04-27T10:42:35.596Z,79.01
2023-04-27T10:43:35.652Z,85.86
2023-04-27T10:44:35.584Z,93.70
2023-04-27T10:45:35.568Z,95.95
2023-04-27T10:46:35.726Z,96.90
2023-04-27T10:47:35.603Z,100.76
2023-04-27T10:48:35.559Z,105.85
2023-04-27T10:49:35.543Z,109.63
2023-04-27T10:50:35.538Z,115.47
2023-04-27T10:51:35.551Z,119.41
2023-04-27T10:52:35.520Z,123.06
2023-04-27T10:53:35.544Z,125.15
2023-04-27T10:54:35.544Z,126.97
2023-04-27T10:55:35.557Z,128.89
2023-04-27T10:56:36.016Z,132.51
2023-04-27T10:57:35.614Z,134.06
2023-04-27T10:58:48.146Z,133.37
2023-04-27T10:59:36.633Z,133.43
2023-04-27T11:00:35.622Z,133.88
2023-04-27T11:01:36.048Z,134.73
2023-04-27T11:02:35.651Z,136.13
2023-04-27T11:03:35.752Z,140.42
2023-04-27T11:04:35.585Z,144.12
2023-04-27T11:05:35.603Z,144.17
2023-04-27T11:06:35.562Z,145.59
2023-04-27T11:07:35.652Z,147.52
2023-04-27T11:08:35.695Z,150.84
2023-04-27T11:09:35.788Z,150.51
2023-04-27T11:10:35.922Z,152.54
2023-04-27T11:11:35.900Z,152.83
2023-04-27T11:12:35.969Z,155.21
2023-04-27T11:13:36.075Z,156.13
2023-04-27T11:14:36.069Z,157.03
2023-04-27T11:15:36.110Z,156.75
2023-04-27T11:16:36.245Z,158.59
2023-04-27T11:17:36.297Z,159.22
2023-04-27T11:18:36.309Z,160.56
2023-04-27T11:19:36.349Z,160.89
2023-04-27T11:20:36.491Z,161.38
2023-04-27T11:21:36.500Z,162.59
2023-04-27T11:22:36.512Z,163.16
2023-04-27T11:23:36.593Z,165.08
2023-04-27T11:24:36.613Z,163.87
2023-04-27T11:25:36.650Z,165.38
2023-04-27T11:26:36.712Z,165.60
2023-04-27T11:27:36.798Z,167.13
2023-04-27T11:28:36.838Z,166.52
2023-04-27T11:29:36.890Z,167.36
2023-04-27T11:30:36.948Z,167.71
2023-04-27T11:31:37.069Z,169.00
2023-04-27T11:32:37.084Z,169.36
2023-04-27T11:33:37.195Z,170.23
2023-04-27T11:34:37.198Z,171.15
2023-04-27T11:35:37.245Z,171.59
2023-04-27T11:36:37.556Z,173.55
2023-04-27T11:37:37.329Z,173.22
2023-04-27T11:38:37.363Z,173.83
2023-04-27T11:39:37.448Z,173.61
2023-04-27T11:40:37.540Z,173.52
2023-04-27T11:41:38.062Z,173.54
2023-04-27T11:42:37.618Z,173.86
2023-04-27T11:43:37.662Z,175.14
2023-04-27T11:44:37.719Z,176.15
2023-04-27T11:45:37.763Z,175.80
2023-04-27T11:46:37.964Z,175.97
2023-04-27T11:47:37.900Z,175.72
2023-04-27T11:48:37.951Z,177.00
2023-04-27T11:49:37.957Z,177.83
2023-04-27T11:50:38.016Z,176.78
2023-04-27T11:51:38.530Z,177.32
2023-04-27T11:52:38.098Z,178.26
2023-04-27T11:53:38.146Z,177.01
2023-04-27T11:54:38.201Z,178.60
2023-04-27T11:55:38.218Z,178.61
2023-04-27T11:56:38.264Z,178.34
2023-04-27T11:57:38.305Z,180.08
2023-04-27T11:58:38.342Z,179.94
2023-04-27T11:59:38.391Z,180.50
2023-04-27T12:00:38.437Z,180.00
2023-04-27T12:01:38.670Z,181.39
2023-04-27T12:02:38.845Z,180.94
2023-04-27T12:03:38.818Z,181.62
2023-04-27T12:04:38.743Z,180.37
2023-04-27T12:05:38.704Z,180.22
2023-04-27T12:06:38.969Z,180.53
2023-04-27T12:07:38.731Z,180.74
2023-04-27T12:08:38.800Z,181.12
2023-04-27T12:09:38.832Z,180.98
2023-04-27T12:10:38.853Z,182.34
2023-04-27T12:11:38.942Z,181.13
2023-04-27T12:12:38.914Z,180.72
2023-04-27T12:13:38.991Z,181.99
2023-04-27T12:14:39.010Z,182.21
2023-04-27T12:15:39.061Z,182.85
2023-04-27T12:16:39.165Z,183.06
2023-04-27T12:17:39.220Z,182.94
2023-04-27T12:18:39.173Z,183.93
2023-04-27T12:19:39.219Z,183.47
2023-04-27T12:20:39.255Z,183.18
2023-04-27T12:21:39.303Z,183.24
2023-04-27T12:22:39.342Z,183.34
2023-04-27T12:23:39.413Z,183.42
2023-04-27T12:24:39.426Z,183.25
2023-04-27T12:25:39.457Z,183.42
2023-04-27T12:26:39.579Z,183.38
2023-04-27T12:27:39.564Z,183.10
2023-04-27T12:28:39.602Z,183.81
2023-04-27T12:29:39.628Z,184.81
2023-04-27T12:30:39.689Z,184.33
2023-04-27T12:31:39.788Z,183.73
2023-04-27T12:32:39.809Z,184.09
2023-04-27T12:33:39.783Z,183.89
2023-04-27T12:34:39.845Z,184.47
2023-04-27T12:35:39.887Z,183.76
2023-04-27T12:36:39.911Z,183.38